createdAt,value
2023-04-06T00:02:02.468Z,1.32
2023-04-06T00:04:28.817Z,1.32
2023-04-06T00:06:55.239Z,1.28
2023-04-06T00:09:21.641Z,1.28
2023-04-06T00:11:48.087Z,1.31
2023-04-06T00:14:14.455Z,1.29
2023-04-06T00:16:40.894Z,1.30
2023-04-06T00:19:07.474Z,1.33
2023-04-06T00:21:33.696Z,1.33
2023-04-06T00:24:00.127Z,1.38
2023-04-06T00:26:26.443Z,1.43
2023-04-06T00:28:52.849Z,1.46
2023-04-06T00:31:19.217Z,1.44
2023-04-06T00:33:45.630Z,1.47
2023-04-06T00:36:12.083Z,1.50
2023-04-06T00:38:38.393Z,1.54
2023-04-06T00:41:04.819Z,1.57
2023-04-06T00:43:31.211Z,1.59
2023-04-06T00:45:57.709Z,1.62
2023-04-06T00:48:23.947Z,1.63
2023-04-06T00:50:50.381Z,1.63
2023-04-06T00:53:16.741Z,1.60
2023-04-06T00:55:43.118Z,1.65
2023-04-06T00:58:09.494Z,1.68
2023-04-06T01:00:35.867Z,1.70
2023-04-06T01:03:02.341Z,1.74
2023-04-06T01:05:28.788Z,1.78
2023-04-06T01:07:55.118Z,1.78
2023-04-06T01:10:21.531Z,1.78
2023-04-06T01:12:47.887Z,1.78
2023-04-06T01:15:14.324Z,1.82
2023-04-06T01:17:40.786Z,1.84
2023-04-06T01:20:07.122Z,1.80
2023-04-06T01:22:33.491Z,1.80
2023-04-06T01:24:59.914Z,1.80
2023-04-06T01:27:26.309Z,1.81
2023-04-06T01:29:52.757Z,1.83
2023-04-06T01:32:19.117Z,1.81
2023-04-06T01:34:45.573Z,1.83
2023-04-06T01:37:11.966Z,1.84
2023-04-06T01:39:38.334Z,1.88
2023-04-06T01:42:04.710Z,1.85
2023-04-06T01:44:31.074Z,1.80
2023-04-06T01:46:57.509Z,1.83
2023-04-06T01:49:23.866Z,1.84
2023-04-06T01:51:50.265Z,1.80
2023-04-06T01:54:16.688Z,1.76
2023-04-06T01:56:43.013Z,1.80
2023-04-06T01:59:09.727Z,1.78
2023-04-06T02:01:35.802Z,1.77
2023-04-06T02:04:02.150Z,1.75
2023-04-06T02:06:28.573Z,1.78
2023-04-06T02:08:54.933Z,1.82
2023-04-06T02:11:21.333Z,1.81
2023-04-06T02:13:47.760Z,1.82
2023-04-06T02:16:14.127Z,1.82
2023-04-06T02:18:40.516Z,1.82
2023-04-06T02:21:06.913Z,1.85
2023-04-06T02:23:33.288Z,1.90
2023-04-06T02:25:59.702Z,1.88
2023-04-06T02:28:26.118Z,1.89
2023-04-06T02:30:52.532Z,1.88
2023-04-06T02:33:18.988Z,1.86
2023-04-06T02:35:45.411Z,1.84
2023-04-06T02:38:11.754Z,1.83
2023-04-06T02:40:38.123Z,1.83
2023-04-06T02:43:04.587Z,1.85
2023-04-06T02:45:30.991Z,1.86
2023-04-06T02:47:57.398Z,1.77
2023-04-06T02:50:23.742Z,1.77
2023-04-06T02:52:50.147Z,1.78
2023-04-06T02:55:16.517Z,1.79
2023-04-06T02:57:42.896Z,1.81
2023-04-06T03:00:09.300Z,1.78
2023-04-06T03:02:35.913Z,1.87
2023-04-06T03:05:02.140Z,1.93
2023-04-06T03:07:28.546Z,1.98
2023-04-06T03:09:54.972Z,2.05
2023-04-06T03:12:21.399Z,2.06
2023-04-06T03:14:47.799Z,2.09
2023-04-06T03:17:14.266Z,2.13
2023-04-06T03:19:40.663Z,2.08
2023-04-06T03:22:07.053Z,2.06
2023-04-06T03:24:33.480Z,2.06
2023-04-06T03:26:59.820Z,2.05
2023-04-06T03:29:26.181Z,2.02
2023-04-06T03:31:52.596Z,2.00
2023-04-06T03:34:19.004Z,2.03
2023-04-06T03:36:46.272Z,2.08
2023-04-06T03:39:11.813Z,2.01
2023-04-06T03:41:38.242Z,2.05
2023-04-06T03:44:04.599Z,2.02
2023-04-06T03:46:31.007Z,2.03
2023-04-06T03:48:57.338Z,2.03
2023-04-06T03:51:23.717Z,2.06
2023-04-06T03:53:50.188Z,2.04
2023-04-06T03:56:16.605Z,1.98
2023-04-06T03:58:43.000Z,1.96
2023-04-06T04:01:09.374Z,1.94
2023-04-06T04:03:35.800Z,1.92
2023-04-06T04:06:02.141Z,1.87
2023-04-06T04:08:28.561Z,1.92
2023-04-06T04:10:54.939Z,1.85
2023-04-06T04:13:21.309Z,1.85
2023-04-06T04:15:47.758Z,1.88
2023-04-06T04:18:14.163Z,1.86
2023-04-06T04:20:40.537Z,1.87
2023-04-06T04:23:06.905Z,1.95
2023-04-06T04:25:33.342Z,1.98
2023-04-06T04:27:59.672Z,2.03
2023-04-06T04:30:28.677Z,2.14
2023-04-06T04:32:55.197Z,2.20
2023-04-06T04:35:21.688Z,2.22
2023-04-06T04:37:48.269Z,2.28
2023-04-06T04:40:14.639Z,2.27
2023-04-06T04:42:41.050Z,2.26
2023-04-06T04:45:07.793Z,2.32
2023-04-06T04:47:34.182Z,2.36
2023-04-06T04:50:00.536Z,2.34
2023-04-06T04:52:26.951Z,2.33
2023-04-06T04:54:53.375Z,2.30
2023-04-06T04:57:19.730Z,2.31
2023-04-06T04:59:46.220Z,2.35
2023-04-06T05:02:12.748Z,2.39
2023-04-06T05:04:39.012Z,2.40
2023-04-06T05:07:05.592Z,2.38
2023-04-06T05:09:31.949Z,2.41
2023-04-06T05:11:58.430Z,2.40
2023-04-06T05:14:24.790Z,2.44
2023-04-06T05:16:51.350Z,2.40
2023-04-06T05:19:17.737Z,2.36
2023-04-06T05:21:44.102Z,2.40
2023-04-06T05:24:10.606Z,2.43
2023-04-06T05:26:37.039Z,2.45
2023-04-06T05:29:03.428Z,2.46
2023-04-06T05:31:29.866Z,2.44
2023-04-06T05:33:56.235Z,2.48
2023-04-06T05:36:22.637Z,2.47
2023-04-06T05:38:49.049Z,2.49
2023-04-06T05:41:15.411Z,2.48
2023-04-06T05:43:41.827Z,2.40
2023-04-06T05:46:08.304Z,2.42
2023-04-06T05:48:34.611Z,2.42
2023-04-06T05:51:01.204Z,2.41
2023-04-06T05:53:27.687Z,2.39
2023-04-06T05:55:54.054Z,2.46
2023-04-06T05:58:20.460Z,2.53
2023-04-06T06:00:46.820Z,2.50
2023-04-06T06:03:13.204Z,2.48
2023-04-06T06:05:39.670Z,2.53
2023-04-06T06:08:06.067Z,2.47
2023-04-06T06:10:32.478Z,2.53
2023-04-06T06:12:58.909Z,2.54
2023-04-06T06:15:25.325Z,2.53
2023-04-06T06:17:51.810Z,2.69
2023-04-06T06:20:18.124Z,2.67
2023-04-06T06:22:44.550Z,2.66
2023-04-06T06:25:10.915Z,2.58
2023-04-06T06:27:37.311Z,2.73
2023-04-06T06:30:03.752Z,2.85
2023-04-06T06:32:30.176Z,2.92
2023-04-06T06:34:56.566Z,2.90
2023-04-06T06:37:24.251Z,2.94
2023-04-06T06:39:50.621Z,3.04
2023-04-06T06:42:17.056Z,3.10
2023-04-06T06:44:43.478Z,3.10
2023-04-06T06:47:09.845Z,3.19
2023-04-06T06:49:36.213Z,3.17
2023-04-06T06:52:02.643Z,3.04
2023-04-06T06:54:29.057Z,2.95
2023-04-06T06:56:55.455Z,2.95
2023-04-06T06:59:21.907Z,3.02
2023-04-06T07:01:48.220Z,3.05
2023-04-06T07:04:14.697Z,3.14
2023-04-06T07:06:41.055Z,3.22
2023-04-06T07:09:07.451Z,3.36
2023-04-06T07:11:33.865Z,3.76
2023-04-06T07:14:00.285Z,3.89
2023-04-06T07:16:26.707Z,3.78
2023-04-06T07:18:53.099Z,3.73
2023-04-06T07:21:19.460Z,3.92
2023-04-06T07:23:45.861Z,4.06
2023-04-06T07:26:12.330Z,4.39
2023-04-06T07:28:38.743Z,5.16
2023-04-06T07:31:05.100Z,6.15
2023-04-06T07:33:31.521Z,6.12
2023-04-06T07:35:58.028Z,6.09
2023-04-06T07:38:24.344Z,5.87
2023-04-06T07:40:50.708Z,5.04
2023-04-06T07:43:17.084Z,5.76
2023-04-06T07:45:43.526Z,5.34
2023-04-06T07:48:09.925Z,5.28
2023-04-06T07:50:36.335Z,5.55
2023-04-06T07:53:02.713Z,6.73
2023-04-06T07:55:29.127Z,7.64
2023-04-06T07:57:55.542Z,7.60
2023-04-06T08:00:21.900Z,7.42
2023-04-06T08:02:48.470Z,8.10
2023-04-06T08:05:14.711Z,8.31
2023-04-06T08:07:41.098Z,7.61
2023-04-06T08:10:07.527Z,7.59
2023-04-06T08:12:33.906Z,7.55
2023-04-06T08:15:00.278Z,8.21
2023-04-06T08:17:26.687Z,9.36
2023-04-06T08:19:53.161Z,9.20
2023-04-06T08:22:19.565Z,8.30
2023-04-06T08:24:45.981Z,8.37
2023-04-06T08:27:12.426Z,9.04
2023-04-06T08:29:39.282Z,9.05
2023-04-06T08:32:05.658Z,9.39
2023-04-06T08:34:32.037Z,9.42
2023-04-06T08:36:58.469Z,9.03
2023-04-06T08:39:24.816Z,8.59
2023-04-06T08:41:51.213Z,8.64
2023-04-06T08:44:17.705Z,9.46
2023-04-06T08:46:44.219Z,8.26
2023-04-06T08:49:10.499Z,7.88
2023-04-06T08:51:36.977Z,7.63
2023-04-06T08:54:11.047Z,7.61
2023-04-06T08:56:37.836Z,9.13
2023-04-06T08:59:04.460Z,8.79
2023-04-06T09:01:30.872Z,8.13
2023-04-06T09:03:58.599Z,7.63
2023-04-06T09:06:26.809Z,8.46
2023-04-06T09:09:00.631Z,9.27
2023-04-06T09:11:28.067Z,9.44
2023-04-06T09:13:58.948Z,8.86
2023-04-06T09:16:25.330Z,8.82
2023-04-06T09:18:52.238Z,7.94
2023-04-06T09:21:21.520Z,7.04
2023-04-06T09:23:46.497Z,8.79
2023-04-06T09:26:12.862Z,9.08
2023-04-06T09:28:39.294Z,9.39
2023-04-06T09:31:06.743Z,10.25
2023-04-06T09:33:33.468Z,10.40
2023-04-06T09:35:59.929Z,9.59
2023-04-06T09:38:26.274Z,8.25
2023-04-06T09:41:00.852Z,9.36
2023-04-06T09:43:19.105Z,9.14
2023-04-06T09:45:45.514Z,9.99
2023-04-06T09:48:12.996Z,10.52
2023-04-06T09:50:39.352Z,10.60
2023-04-06T09:53:05.766Z,10.04
2023-04-06T09:55:32.232Z,9.60
2023-04-06T09:57:58.679Z,9.61
2023-04-06T10:00:26.093Z,9.49
2023-04-06T10:02:52.604Z,9.65
2023-04-06T10:05:18.871Z,8.82
2023-04-06T10:07:57.235Z,8.22
2023-04-06T10:10:11.674Z,8.32
2023-04-06T10:12:38.084Z,8.89
2023-04-06T10:15:04.537Z,9.22
2023-04-06T10:17:30.933Z,8.82
2023-04-06T10:19:59.514Z,9.08
2023-04-06T10:22:25.994Z,9.41
2023-04-06T10:24:52.364Z,9.16
2023-04-06T10:27:19.198Z,8.73
2023-04-06T10:29:46.410Z,8.36
2023-04-06T10:32:12.820Z,8.07
2023-04-06T10:34:39.160Z,9.13
2023-04-06T10:37:05.598Z,9.73
2023-04-06T10:39:32.015Z,10.12
2023-04-06T10:41:58.441Z,9.52
2023-04-06T10:44:24.846Z,9.53
2023-04-06T10:46:51.312Z,8.90
2023-04-06T10:49:17.685Z,9.06
2023-04-06T10:51:44.116Z,8.93
2023-04-06T10:54:10.530Z,8.54
2023-04-06T10:56:36.899Z,8.33
2023-04-06T10:59:03.515Z,8.96
2023-04-06T11:01:29.915Z,9.29
2023-04-06T11:03:56.307Z,9.64
2023-04-06T11:06:22.934Z,10.03
2023-04-06T11:08:49.387Z,9.59
2023-04-06T11:11:16.180Z,8.59
2023-04-06T11:13:42.587Z,8.18
2023-04-06T11:16:08.950Z,8.70
2023-04-06T11:18:35.545Z,9.13
2023-04-06T11:21:02.282Z,9.17
2023-04-06T11:23:28.737Z,8.99
2023-04-06T11:25:55.108Z,8.84
2023-04-06T11:28:21.517Z,8.92
2023-04-06T11:30:47.970Z,8.68
2023-04-06T11:33:14.350Z,8.83
2023-04-06T11:35:40.805Z,8.67
2023-04-06T11:38:07.146Z,8.73
2023-04-06T11:40:33.606Z,8.98
2023-04-06T11:42:59.977Z,8.86
2023-04-06T11:45:26.429Z,8.85
2023-04-06T11:47:52.903Z,8.66
2023-04-06T11:50:19.283Z,8.32
2023-04-06T11:52:46.205Z,8.25
2023-04-06T11:55:12.607Z,8.13
2023-04-06T11:57:39.124Z,8.02
2023-04-06T12:00:05.531Z,8.26
2023-04-06T12:02:32.146Z,8.02
2023-04-06T12:04:58.499Z,7.93
2023-04-06T12:07:24.886Z,7.94
2023-04-06T12:09:51.301Z,7.86
2023-04-06T12:12:17.672Z,7.66
2023-04-06T12:14:44.073Z,7.69
2023-04-06T12:17:10.477Z,7.53
2023-04-06T12:19:36.902Z,7.83
2023-04-06T12:22:03.304Z,7.94
2023-04-06T12:24:29.718Z,7.89
2023-04-06T12:27:08.673Z,7.68
2023-04-06T12:29:22.533Z,7.62
2023-04-06T12:31:49.027Z,7.47
2023-04-06T12:34:15.383Z,7.46
2023-04-06T12:36:41.787Z,7.62
2023-04-06T12:39:08.182Z,7.62
2023-04-06T12:41:34.579Z,7.84
2023-04-06T12:44:01.003Z,7.84
2023-04-06T12:46:27.475Z,7.63
2023-04-06T12:48:53.781Z,7.35
2023-04-06T12:51:20.157Z,7.20
2023-04-06T12:53:47.011Z,7.30
2023-04-06T12:56:13.442Z,7.42
2023-04-06T12:58:44.259Z,7.39
2023-04-06T13:01:12.767Z,7.38
2023-04-06T13:03:39.082Z,7.50
2023-04-06T13:06:05.446Z,7.64
2023-04-06T13:08:31.902Z,7.59
2023-04-06T13:10:58.281Z,7.61
2023-04-06T13:13:24.660Z,7.69
2023-04-06T13:15:51.355Z,7.45
2023-04-06T13:18:17.738Z,7.24
2023-04-06T13:20:44.102Z,7.21
2023-04-06T13:23:10.475Z,7.28
2023-04-06T13:25:36.976Z,7.43
2023-04-06T13:28:03.310Z,7.40
2023-04-06T13:30:29.699Z,7.43
2023-04-06T13:32:56.123Z,7.49
2023-04-06T13:35:22.480Z,7.62
2023-04-06T13:37:48.938Z,7.54
2023-04-06T13:40:15.379Z,7.49
2023-04-06T13:42:41.782Z,7.36
2023-04-06T13:45:08.220Z,7.48
2023-04-06T13:47:34.595Z,7.59
2023-04-06T13:50:01.002Z,7.59
2023-04-06T13:52:27.518Z,7.55
2023-04-06T13:54:53.915Z,7.57
2023-04-06T13:57:20.599Z,7.45
2023-04-06T13:59:47.050Z,7.37
2023-04-06T14:02:13.617Z,7.36
2023-04-06T14:04:39.919Z,7.46
2023-04-06T14:07:06.275Z,7.51
2023-04-06T14:09:32.671Z,7.44
2023-04-06T14:11:59.085Z,7.54
2023-04-06T14:14:25.684Z,7.46
2023-04-06T14:16:52.154Z,7.34
2023-04-06T14:19:18.515Z,7.29
2023-04-06T14:21:45.060Z,7.21
2023-04-06T14:24:11.478Z,7.14
2023-04-06T14:26:37.850Z,7.15
2023-04-06T14:29:04.283Z,7.06
2023-04-06T14:31:30.695Z,7.03
2023-04-06T14:33:57.135Z,7.03
2023-04-06T14:36:23.527Z,6.96
2023-04-06T14:38:49.962Z,6.87
2023-04-06T14:41:16.432Z,6.85
2023-04-06T14:43:42.944Z,6.90
2023-04-06T14:46:09.401Z,6.98
2023-04-06T14:48:36.804Z,6.82
2023-04-06T14:51:03.213Z,6.77
2023-04-06T14:53:29.638Z,6.87
2023-04-06T14:55:56.069Z,6.91
2023-04-06T14:58:22.511Z,6.84
2023-04-06T15:00:48.878Z,6.85
2023-04-06T15:03:15.364Z,6.79
2023-04-06T15:05:41.655Z,6.54
2023-04-06T15:08:08.041Z,6.45
2023-04-06T15:10:34.512Z,6.50
2023-04-06T15:13:00.886Z,6.45
2023-04-06T15:15:27.261Z,6.48
2023-04-06T15:17:53.731Z,6.43
2023-04-06T15:20:20.141Z,6.37
2023-04-06T15:22:46.512Z,6.32
2023-04-06T15:25:12.927Z,6.16
2023-04-06T15:27:39.317Z,6.11
2023-04-06T15:30:05.744Z,6.10
2023-04-06T15:32:32.219Z,5.97
2023-04-06T15:34:58.559Z,5.84
2023-04-06T15:37:24.938Z,5.85
2023-04-06T15:39:51.324Z,5.91
2023-04-06T15:42:17.970Z,5.90
2023-04-06T15:44:44.344Z,5.84
2023-04-06T15:47:10.765Z,5.73
2023-04-06T15:49:37.232Z,5.67
2023-04-06T15:52:03.611Z,5.66
2023-04-06T15:54:30.060Z,5.68
2023-04-06T15:56:56.617Z,5.68
2023-04-06T15:59:23.011Z,5.68
2023-04-06T16:01:49.780Z,5.77
2023-04-06T16:04:17.151Z,5.64
2023-04-06T16:06:43.503Z,5.51
2023-04-06T16:09:09.894Z,5.45
2023-04-06T16:11:36.279Z,5.49
2023-04-06T16:14:02.793Z,5.41
2023-04-06T16:16:29.296Z,5.36
2023-04-06T16:18:55.706Z,5.34
2023-04-06T16:21:22.043Z,5.32
2023-04-06T16:23:48.485Z,5.28
2023-04-06T16:26:15.618Z,5.26
2023-04-06T16:28:41.957Z,5.25
2023-04-06T16:31:08.402Z,5.28
2023-04-06T16:33:34.849Z,5.26
2023-04-06T16:36:01.279Z,5.26
2023-04-06T16:38:27.720Z,5.28
2023-04-06T16:40:54.150Z,5.28
2023-04-06T16:43:20.579Z,5.24
2023-04-06T16:45:47.062Z,5.19
2023-04-06T16:48:14.632Z,5.18
2023-04-06T16:50:39.996Z,5.16
2023-04-06T16:53:06.363Z,5.13
2023-04-06T16:55:32.850Z,5.15
2023-04-06T16:57:59.223Z,5.13
2023-04-06T17:00:25.630Z,5.12
2023-04-06T17:02:52.481Z,5.13
2023-04-06T17:05:18.729Z,5.17
2023-04-06T17:07:45.171Z,5.16
2023-04-06T17:10:11.759Z,5.15
2023-04-06T17:12:38.145Z,5.14
2023-04-06T17:15:04.562Z,5.12
2023-04-06T17:17:30.997Z,5.10
2023-04-06T17:19:57.544Z,5.14
2023-04-06T17:22:23.936Z,5.10
2023-04-06T17:24:50.374Z,5.04
2023-04-06T17:27:16.859Z,5.04
2023-04-06T17:29:43.330Z,5.08
2023-04-06T17:32:09.650Z,5.06
2023-04-06T17:34:36.034Z,5.10
2023-04-06T17:37:02.469Z,5.11
2023-04-06T17:39:28.858Z,5.06
2023-04-06T17:41:55.221Z,5.02
2023-04-06T17:44:21.599Z,5.07
2023-04-06T17:46:48.036Z,5.05
2023-04-06T17:49:14.408Z,5.00
2023-04-06T17:51:40.834Z,5.01
2023-04-06T17:54:07.212Z,5.04
2023-04-06T17:56:33.892Z,5.02
2023-04-06T17:59:01.328Z,4.98
2023-04-06T18:01:27.880Z,5.01
2023-04-06T18:03:54.282Z,5.07
2023-04-06T18:06:20.536Z,5.02
2023-04-06T18:08:46.935Z,4.97
2023-04-06T18:11:13.507Z,4.98
2023-04-06T18:13:40.337Z,4.97
2023-04-06T18:16:06.268Z,4.96
2023-04-06T18:18:32.673Z,4.97
2023-04-06T18:20:59.162Z,4.99
2023-04-06T18:23:25.758Z,5.04
2023-04-06T18:25:52.137Z,5.01
2023-04-06T18:28:18.538Z,4.97
2023-04-06T18:30:44.965Z,4.97
2023-04-06T18:33:11.354Z,4.99
2023-04-06T18:35:37.720Z,5.00
2023-04-06T18:38:04.423Z,4.99
2023-04-06T18:40:30.791Z,5.02
2023-04-06T18:42:57.167Z,5.05
2023-04-06T18:45:23.593Z,5.04
2023-04-06T18:47:50.372Z,5.06
2023-04-06T18:50:16.713Z,5.09
2023-04-06T18:52:43.195Z,5.09
2023-04-06T18:55:11.962Z,5.11
2023-04-06T18:57:38.414Z,5.08
2023-04-06T19:00:05.960Z,5.03
2023-04-06T19:02:32.496Z,5.00
2023-04-06T19:04:59.003Z,4.94
2023-04-06T19:07:25.335Z,4.95
2023-04-06T19:09:51.740Z,4.93
2023-04-06T19:12:18.166Z,4.93
2023-04-06T19:14:44.595Z,4.92
2023-04-06T19:17:11.025Z,4.92
2023-04-06T19:19:37.434Z,4.88
2023-04-06T19:22:03.803Z,4.93
2023-04-06T19:24:30.373Z,4.97
2023-04-06T19:26:56.883Z,4.96
2023-04-06T19:29:23.257Z,4.95
2023-04-06T19:31:49.701Z,4.96
2023-04-06T19:34:16.120Z,4.97
2023-04-06T19:36:42.485Z,5.01
2023-04-06T19:39:08.886Z,4.99
2023-04-06T19:41:35.378Z,4.93
2023-04-06T19:44:01.785Z,4.90
2023-04-06T19:46:28.216Z,4.90
2023-04-06T19:48:54.905Z,4.88
2023-04-06T19:51:21.260Z,4.84
2023-04-06T19:53:47.780Z,4.83
2023-04-06T19:56:14.252Z,4.87
2023-04-06T19:58:40.624Z,4.86
2023-04-06T20:01:07.026Z,4.84
2023-04-06T20:03:33.471Z,4.81
2023-04-06T20:05:59.895Z,4.75
2023-04-06T20:08:26.298Z,4.70
2023-04-06T20:10:52.702Z,4.66
2023-04-06T20:13:20.194Z,4.65
2023-04-06T20:15:46.591Z,4.68
2023-04-06T20:18:12.937Z,4.68
2023-04-06T20:20:39.348Z,4.67
2023-04-06T20:23:05.752Z,4.68
2023-04-06T20:25:32.469Z,4.68
2023-04-06T20:27:58.825Z,4.67
2023-04-06T20:30:25.187Z,4.67
2023-04-06T20:32:51.921Z,4.65
2023-04-06T20:35:18.360Z,4.60
2023-04-06T20:37:44.816Z,4.56
2023-04-06T20:40:11.196Z,4.58
2023-04-06T20:42:37.638Z,4.59
2023-04-06T20:45:04.025Z,4.57
2023-04-06T20:47:30.607Z,4.55
2023-04-06T20:49:56.932Z,4.53
2023-04-06T20:52:23.325Z,4.49
2023-04-06T20:54:49.741Z,4.46
2023-04-06T20:57:16.148Z,4.45
2023-04-06T20:59:42.545Z,4.44
2023-04-06T21:02:09.123Z,4.44
2023-04-06T21:04:35.552Z,4.48
2023-04-06T21:07:01.835Z,4.49
2023-04-06T21:09:28.342Z,4.49
2023-04-06T21:11:54.780Z,4.49
2023-04-06T21:14:21.323Z,4.50
2023-04-06T21:16:47.588Z,4.55
2023-04-06T21:19:13.990Z,4.59
2023-04-06T21:21:40.393Z,4.59
2023-04-06T21:24:06.875Z,4.61
2023-04-06T21:26:33.235Z,4.58
2023-04-06T21:28:59.583Z,4.59
2023-04-06T21:31:26.112Z,4.58
2023-04-06T21:33:52.454Z,4.60
2023-04-06T21:36:18.864Z,4.62
2023-04-06T21:38:45.232Z,4.64
2023-04-06T21:41:11.645Z,4.60
2023-04-06T21:43:38.013Z,4.61
2023-04-06T21:46:04.431Z,4.61
2023-04-06T21:48:30.855Z,4.61
2023-04-06T21:50:57.276Z,4.57
2023-04-06T21:53:23.610Z,4.55
2023-04-06T21:55:50.036Z,4.50
2023-04-06T21:58:16.422Z,4.48
2023-04-06T22:00:42.836Z,4.46
2023-04-06T22:03:09.339Z,4.42
2023-04-06T22:05:35.564Z,4.41
2023-04-06T22:08:01.968Z,4.38
2023-04-06T22:10:28.336Z,4.37
2023-04-06T22:12:54.730Z,4.31
2023-04-06T22:15:21.142Z,4.27
2023-04-06T22:17:47.558Z,4.26
2023-04-06T22:20:13.923Z,4.28
2023-04-06T22:22:40.330Z,4.30
2023-04-06T22:25:06.740Z,4.25
2023-04-06T22:27:33.189Z,4.26
2023-04-06T22:29:59.591Z,4.23
2023-04-06T22:32:26.099Z,4.22
2023-04-06T22:34:52.411Z,4.19
2023-04-06T22:37:18.830Z,4.17
2023-04-06T22:39:45.257Z,4.16
2023-04-06T22:42:11.662Z,4.14
2023-04-06T22:44:38.082Z,4.12
2023-04-06T22:47:04.494Z,4.08
2023-04-06T22:49:30.881Z,4.06
2023-04-06T22:51:57.252Z,4.09
2023-04-06T22:54:23.647Z,4.08
2023-04-06T22:56:50.053Z,4.06
2023-04-06T22:59:16.470Z,4.03
2023-04-06T23:01:43.065Z,4.00
2023-04-06T23:04:09.411Z,3.96
2023-04-06T23:06:35.690Z,3.93
2023-04-06T23:09:02.310Z,3.92
2023-04-06T23:11:28.672Z,3.93
2023-04-06T23:13:55.069Z,3.91
2023-04-06T23:16:21.501Z,3.90
2023-04-06T23:18:47.849Z,3.87
2023-04-06T23:21:14.240Z,3.88
2023-04-06T23:23:40.663Z,3.89
2023-04-06T23:26:07.059Z,3.86
2023-04-06T23:28:33.608Z,3.86
2023-04-06T23:30:59.967Z,3.88
2023-04-06T23:33:26.355Z,3.76
2023-04-06T23:35:53.063Z,3.33
2023-04-06T23:38:19.440Z,2.79
2023-04-06T23:40:45.833Z,2.46
2023-04-06T23:43:12.238Z,2.33
2023-04-06T23:45:38.756Z,2.25
2023-04-06T23:48:05.276Z,2.22
2023-04-06T23:50:31.630Z,2.11
2023-04-06T23:52:58.003Z,2.10
2023-04-06T23:55:24.373Z,2.12
2023-04-06T23:57:50.856Z,2.18
